sensor_id;sensor_type;location;lat;lon;timestamp;pressure;altitude;pressure_sealevel;temperature;humidity
24610;BME280;12758;47.890;11.694;2023-02-21T00:00:52;94292.88;;;7.38;100.00
24610;BME280;12758;47.890;11.694;2023-02-21T00:03:37;94292.69;;;7.49;100.00
24610;BME280;12758;47.890;11.694;2023-02-21T00:06:21;94292.44;;;7.31;100.00
24610;BME280;12758;47.890;11.694;2023-02-21T00:09:06;94289.84;;;7.26;100.00
24610;BME280;12758;47.890;11.694;2023-02-21T00:11:50;94288.59;;;7.18;100.00
24610;BME280;12758;47.890;11.694;2023-02-21T00:14:35;94293.88;;;7.42;100.00
24610;BME280;12758;47.890;11.694;2023-02-21T00:17:20;94289.28;;;7.57;100.00
24610;BME280;12758;47.890;11.694;2023-02-21T00:20:04;94288.09;;;7.63;100.00
24610;BME280;12758;47.890;11.694;2023-02-21T00:22:48;94283.66;;;7.39;100.00
24610;BME280;12758;47.890;11.694;2023-02-21T00:25:33;94285.50;;;7.58;100.00
24610;BME280;12758;47.890;11.694;2023-02-21T00:28:18;94288.63;;;7.65;100.00
24610;BME280;12758;47.890;11.694;2023-02-21T00:31:02;94290.72;;;7.68;100.00
24610;BME280;12758;47.890;11.694;2023-02-21T00:33:46;94279.50;;;7.61;100.00
24610;BME280;12758;47.890;11.694;2023-02-21T00:36:31;94274.91;;;7.61;100.00
24610;BME280;12758;47.890;11.694;2023-02-21T00:39:15;94266.88;;;7.42;100.00
24610;BME280;12758;47.890;11.694;2023-02-21T00:42:00;94276.88;;;7.56;100.00
24610;BME280;12758;47.890;11.694;2023-02-21T00:44:44;94277.78;;;7.51;100.00
24610;BME280;12758;47.890;11.694;2023-02-21T00:47:28;94283.41;;;7.55;100.00
24610;BME280;12758;47.890;11.694;2023-02-21T00:50:12;94274.06;;;7.47;100.00
24610;BME280;12758;47.890;11.694;2023-02-21T00:52:56;94278.00;;;7.55;100.00
24610;BME280;12758;47.890;11.694;2023-02-21T00:55:41;94275.69;;;7.62;100.00
24610;BME280;12758;47.890;11.694;2023-02-21T00:58:25;94280.31;;;7.61;100.00
24610;BME280;12758;47.890;11.694;2023-02-21T01:01:10;94275.69;;;7.62;100.00
24610;BME280;12758;47.890;11.694;2023-02-21T01:03:54;94268.72;;;7.61;100.00
24610;BME280;12758;47.890;11.694;2023-02-21T01:06:40;94264.69;;;7.58;100.00
24610;BME280;12758;47.890;11.694;2023-02-21T01:09:24;94261.28;;;7.53;100.00
24610;BME280;12758;47.890;11.694;2023-02-21T01:12:09;94267.28;;;7.50;100.00
24610;BME280;12758;47.890;11.694;2023-02-21T01:14:53;94264.25;;;7.51;100.00
24610;BME280;12758;47.890;11.694;2023-02-21T01:17:38;94257.28;;;7.50;100.00
24610;BME280;12758;47.890;11.694;2023-02-21T01:20:22;94256.47;;;7.50;100.00
24610;BME280;12758;47.890;11.694;2023-02-21T01:23:06;94256.88;;;7.57;100.00
24610;BME280;12758;47.890;11.694;2023-02-21T01:25:50;94254.69;;;7.59;100.00
24610;BME280;12758;47.890;11.694;2023-02-21T01:28:34;94260.09;;;7.59;100.00
24610;BME280;12758;47.890;11.694;2023-02-21T01:31:20;94252.59;;;7.56;100.00
24610;BME280;12758;47.890;11.694;2023-02-21T01:34:05;94257.59;;;7.49;100.00
24610;BME280;12758;47.890;11.694;2023-02-21T01:36:48;94250.88;;;7.46;100.00
24610;BME280;12758;47.890;11.694;2023-02-21T01:39:33;94248.44;;;7.44;100.00
24610;BME280;12758;47.890;11.694;2023-02-21T01:42:17;94244.16;;;7.43;100.00
24610;BME280;12758;47.890;11.694;2023-02-21T01:45:39;94243.88;;;7.45;100.00
24610;BME280;12758;47.890;11.694;2023-02-21T01:48:25;94231.75;;;7.42;100.00
24610;BME280;12758;47.890;11.694;2023-02-21T01:51:09;94238.75;;;7.43;100.00
24610;BME280;12758;47.890;11.694;2023-02-21T01:53:55;94233.47;;;7.38;100.00
24610;BME280;12758;47.890;11.694;2023-02-21T01:56:39;94231.84;;;7.37;100.00
24610;BME280;12758;47.890;11.694;2023-02-21T01:59:24;94228.34;;;7.37;100.00
24610;BME280;12758;47.890;11.694;2023-02-21T02:02:12;94225.66;;;7.37;100.00
24610;BME280;12758;47.890;11.694;2023-02-21T02:04:59;94219.47;;;7.36;100.00
24610;BME280;12758;47.890;11.694;2023-02-21T02:07:44;94210.03;;;7.34;100.00
24610;BME280;12758;47.890;11.694;2023-02-21T02:10:29;94208.25;;;7.29;100.00
24610;BME280;12758;47.890;11.694;2023-02-21T02:13:29;94210.66;;;7.31;100.00
24610;BME280;12758;47.890;11.694;2023-02-21T02:16:06;94215.25;;;7.30;100.00
24610;BME280;12758;47.890;11.694;2023-02-21T02:18:57;94212.53;;;7.30;100.00
24610;BME280;12758;47.890;11.694;2023-02-21T02:24:38;94216.25;;;7.34;100.00
24610;BME280;12758;47.890;11.694;2023-02-21T02:27:30;94211.94;;;7.33;100.00
24610;BME280;12758;47.890;11.694;2023-02-21T02:33:39;94199.66;;;7.27;100.00
24610;BME280;12758;47.890;11.694;2023-02-21T02:36:12;94196.44;;;7.25;100.00
24610;BME280;12758;47.890;11.694;2023-02-21T02:38:45;94199.66;;;7.27;100.00
24610;BME280;12758;47.890;11.694;2023-02-21T02:41:16;94193.66;;;7.30;100.00
24610;BME280;12758;47.890;11.694;2023-02-21T02:43:47;94190.44;;;7.28;100.00
24610;BME280;12758;47.890;11.694;2023-02-21T02:46:18;94194.25;;;7.27;100.00
24610;BME280;12758;47.890;11.694;2023-02-21T02:48:47;94191.63;;;7.22;100.00
24610;BME280;12758;47.890;11.694;2023-02-21T02:51:15;94191.63;;;7.22;100.00
24610;BME280;12758;47.890;11.694;2023-02-21T02:53:41;94185.44;;;7.21;100.00
24610;BME280;12758;47.890;11.694;2023-02-21T02:56:10;94189.25;;;7.20;100.00
24610;BME280;12758;47.890;11.694;2023-02-21T02:58:39;94187.66;;;7.19;100.00
24610;BME280;12758;47.890;11.694;2023-02-21T03:01:17;94186.75;;;7.24;100.00
24610;BME280;12758;47.890;11.694;2023-02-21T03:03:54;94185.44;;;7.21;100.00
24610;BME280;12758;47.890;11.694;2023-02-21T03:06:32;94188.44;;;7.20;100.00
24610;BME280;12758;47.890;11.694;2023-02-21T03:09:08;94183.13;;;7.15;100.00
24610;BME280;12758;47.890;11.694;2023-02-21T03:11:42;94180.03;;;7.08;100.00
24610;BME280;12758;47.890;11.694;2023-02-21T03:14:13;94179.22;;;7.07;100.00
24610;BME280;12758;47.890;11.694;2023-02-21T03:16:42;94177.31;;;7.08;100.00
24610;BME280;12758;47.890;11.694;2023-02-21T03:19:12;94179.44;;;7.11;100.00
24610;BME280;12758;47.890;11.694;2023-02-21T03:21:41;94182.53;;;7.04;100.00
24610;BME280;12758;47.890;11.694;2023-02-21T03:24:09;94183.00;;;7.06;100.00
24610;BME280;12758;47.890;11.694;2023-02-21T03:26:39;94186.03;;;7.05;100.00
24610;BME280;12758;47.890;11.694;2023-02-21T03:29:07;94185.22;;;7.04;100.00
24610;BME280;12758;47.890;11.694;2023-02-21T03:31:35;94183.91;;;7.02;100.00
24610;BME280;12758;47.890;11.694;2023-02-21T03:34:02;94185.03;;;7.00;100.00
24610;BME280;12758;47.890;11.694;2023-02-21T03:36:28;94188.00;;;6.99;100.00
24610;BME280;12758;47.890;11.694;2023-02-21T03:38:55;94180.03;;;7.08;100.00
24610;BME280;12758;47.890;11.694;2023-02-21T03:41:21;94179.72;;;7.09;100.00
24610;BME280;12758;47.890;11.694;2023-02-21T03:43:47;94181.41;;;7.05;100.00
24610;BME280;12758;47.890;11.694;2023-02-21T03:46:13;94179.50;;;7.06;100.00
24610;BME280;12758;47.890;11.694;2023-02-21T03:48:39;94179.03;;;7.04;100.00
24610;BME280;12758;47.890;11.694;2023-02-21T03:51:05;94172.59;;;6.99;100.00
24610;BME280;12758;47.890;11.694;2023-02-21T03:53:31;94186.81;;;7.05;100.00
24610;BME280;12758;47.890;11.694;2023-02-21T03:55:57;94179.31;;;7.02;100.00
24610;BME280;12758;47.890;11.694;2023-02-21T03:58:23;94188.78;;;6.99;100.00
24610;BME280;12758;47.890;11.694;2023-02-21T04:00:49;94187.78;;;6.95;100.00
24610;BME280;12758;47.890;11.694;2023-02-21T04:03:16;94193.78;;;6.92;100.00
24610;BME280;12758;47.890;11.694;2023-02-21T04:05:42;94191.59;;;6.94;100.00
24610;BME280;12758;47.890;11.694;2023-02-21T04:08:08;94186.06;;;6.86;100.00
24610;BME280;12758;47.890;11.694;2023-02-21T04:10:34;94191.69;;;6.89;100.00
24610;BME280;12758;47.890;11.694;2023-02-21T04:13:00;94185.78;;;6.87;100.00
24610;BME280;12758;47.890;11.694;2023-02-21T04:15:26;94188.97;;;6.89;100.00
24610;BME280;12758;47.890;11.694;2023-02-21T04:17:52;94192.19;;;6.91;100.00
24610;BME280;12758;47.890;11.694;2023-02-21T04:20:18;94191.78;;;6.84;100.00
24610;BME280;12758;47.890;11.694;2023-02-21T04:22:44;94192.84;;;6.83;100.00
24610;BME280;12758;47.890;11.694;2023-02-21T04:25:10;94192.38;;;6.81;100.00
24610;BME280;12758;47.890;11.694;2023-02-21T04:27:36;94195.56;;;6.83;100.00
24610;BME280;12758;47.890;11.694;2023-02-21T04:30:03;94187.78;;;6.82;100.00
24610;BME280;12758;47.890;11.694;2023-02-21T04:32:29;94191.25;;;6.82;100.00
24610;BME280;12758;47.890;11.694;2023-02-21T04:34:55;94186.47;;;6.79;100.00
24610;BME280;12758;47.890;11.694;2023-02-21T04:37:21;94187.06;;;6.76;100.00
24610;BME280;12758;47.890;11.694;2023-02-21T04:39:47;94185.34;;;6.80;100.00
24610;BME280;12758;47.890;11.694;2023-02-21T04:42:13;94187.56;;;6.78;100.00
24610;BME280;12758;47.890;11.694;2023-02-21T04:44:39;94187.56;;;6.78;100.00
24610;BME280;12758;47.890;11.694;2023-02-21T04:47:06;94186.97;;;6.81;100.00
24610;BME280;12758;47.890;11.694;2023-02-21T04:49:32;94194.56;;;6.79;100.00
24610;BME280;12758;47.890;11.694;2023-02-21T04:51:57;94193.56;;;6.75;100.00
24610;BME280;12758;47.890;11.694;2023-02-21T04:54:23;94197.84;;;6.76;100.00
24610;BME280;12758;47.890;11.694;2023-02-21T04:56:49;94195.72;;;6.73;100.00
24610;BME280;12758;47.890;11.694;2023-02-21T04:59:16;94188.16;;;6.75;100.00
24610;BME280;12758;47.890;11.694;2023-02-21T05:01:42;94193.56;;;6.75;100.00
24610;BME280;12758;47.890;11.694;2023-02-21T05:04:08;94182.56;;;6.71;100.00
24610;BME280;12758;47.890;11.694;2023-02-21T05:06:34;94179.28;;;6.74;100.00
24610;BME280;12758;47.890;11.694;2023-02-21T05:09:01;94185.13;;;6.63;100.00
24610;BME280;12758;47.890;11.694;2023-02-21T05:11:26;94183.38;;;6.53;100.00
24610;BME280;12758;47.890;11.694;2023-02-21T05:13:53;94178.41;;;6.60;100.00
24610;BME280;12758;47.890;11.694;2023-02-21T05:16:19;94178.13;;;6.62;100.00
24610;BME280;12758;47.890;11.694;2023-02-21T05:18:46;94173.41;;;6.53;100.00
24610;BME280;12758;47.890;11.694;2023-02-21T05:21:13;94170.13;;;6.57;100.00
24610;BME280;12758;47.890;11.694;2023-02-21T05:23:41;94166.03;;;6.26;98.06
24610;BME280;12758;47.890;11.694;2023-02-21T05:26:18;94168.16;;;6.43;100.00
24610;BME280;12758;47.890;11.694;2023-02-21T05:28:44;94170.50;;;6.50;100.00
24610;BME280;12758;47.890;11.694;2023-02-21T05:31:10;94173.47;;;6.48;100.00
24610;BME280;12758;47.890;11.694;2023-02-21T05:33:36;94174.66;;;6.42;100.00
24610;BME280;12758;47.890;11.694;2023-02-21T05:36:02;94166.47;;;6.47;100.00
24610;BME280;12758;47.890;11.694;2023-02-21T05:38:29;94161.22;;;6.23;99.48
24610;BME280;12758;47.890;11.694;2023-02-21T05:40:55;94159.59;;;6.22;100.00
24610;BME280;12758;47.890;11.694;2023-02-21T05:43:21;94170.16;;;6.19;100.00
24610;BME280;12758;47.890;11.694;2023-02-21T05:45:47;94166.22;;;6.30;100.00
24610;BME280;12758;47.890;11.694;2023-02-21T05:48:13;94161.41;;;6.27;100.00
24610;BME280;12758;47.890;11.694;2023-02-21T05:50:39;94170.44;;;6.36;100.00
24610;BME280;12758;47.890;11.694;2023-02-21T05:53:05;94158.13;;;6.30;100.00
24610;BME280;12758;47.890;11.694;2023-02-21T05:55:35;94155.09;;;6.18;100.00
24610;BME280;12758;47.890;11.694;2023-02-21T05:58:01;94156.63;;;6.05;100.00
24610;BME280;12758;47.890;11.694;2023-02-21T06:00:28;94151.75;;;6.07;100.00
24610;BME280;12758;47.890;11.694;2023-02-21T06:02:54;94154.09;;;5.71;97.25
24610;BME280;12758;47.890;11.694;2023-02-21T06:05:21;94150.94;;;5.45;100.00
24610;BME280;12758;47.890;11.694;2023-02-21T06:07:48;94148.03;;;5.41;100.00
24610;BME280;12758;47.890;11.694;2023-02-21T06:10:14;94151.41;;;5.28;100.00
24610;BME280;12758;47.890;11.694;2023-02-21T06:12:41;94148.31;;;5.16;100.00
24610;BME280;12758;47.890;11.694;2023-02-21T06:15:08;94150.13;;;5.44;100.00
24610;BME280;12758;47.890;11.694;2023-02-21T06:17:34;94153.72;;;5.58;100.00
24610;BME280;12758;47.890;11.694;2023-02-21T06:20:01;94150.53;;;5.56;100.00
24610;BME280;12758;47.890;11.694;2023-02-21T06:22:27;94148.59;;;5.38;100.00
24610;BME280;12758;47.890;11.694;2023-02-21T06:24:53;94152.00;;;5.25;100.00
24610;BME280;12758;47.890;11.694;2023-02-21T06:27:18;94153.81;;;5.05;100.00
24610;BME280;12758;47.890;11.694;2023-02-21T06:29:45;94144.88;;;4.86;100.00
24610;BME280;12758;47.890;11.694;2023-02-21T06:32:11;94140.88;;;4.83;100.00
24610;BME280;12758;47.890;11.694;2023-02-21T06:34:37;94149.25;;;4.82;100.00
24610;BME280;12758;47.890;11.694;2023-02-21T06:37:03;94156.78;;;4.80;100.00
24610;BME280;12758;47.890;11.694;2023-02-21T06:39:29;94153.97;;;4.66;100.00
24610;BME280;12758;47.890;11.694;2023-02-21T06:41:55;94154.13;;;4.75;100.00
24610;BME280;12758;47.890;11.694;2023-02-21T06:44:21;94163.25;;;4.79;100.00
24610;BME280;12758;47.890;11.694;2023-02-21T06:46:48;94158.94;;;4.78;100.00
24610;BME280;12758;47.890;11.694;2023-02-21T06:49:15;94163.44;;;5.11;100.00
24610;BME280;12758;47.890;11.694;2023-02-21T06:51:41;94156.56;;;5.24;100.00
24610;BME280;12758;47.890;11.694;2023-02-21T06:54:08;94163.03;;;5.47;100.00
24610;BME280;12758;47.890;11.694;2023-02-21T06:56:34;94162.41;;;5.55;100.00
24610;BME280;12758;47.890;11.694;2023-02-21T06:59:00;94166.03;;;5.65;100.00
24610;BME280;12758;47.890;11.694;2023-02-21T07:01:27;94164.97;;;5.66;100.00
24610;BME280;12758;47.890;11.694;2023-02-21T07:03:54;94166.50;;;5.72;100.00
24610;BME280;12758;47.890;11.694;2023-02-21T07:06:21;94168.94;;;5.49;100.00
24610;BME280;12758;47.890;11.694;2023-02-21T07:08:47;94161.13;;;5.48;100.00
24610;BME280;12758;47.890;11.694;2023-02-21T07:11:14;94168.25;;;5.38;100.00
24610;BME280;12758;47.890;11.694;2023-02-21T07:13:40;94167.56;;;5.28;100.00
24610;BME280;12758;47.890;11.694;2023-02-21T07:16:06;94171.22;;;5.37;100.00
24610;BME280;12758;47.890;11.694;2023-02-21T07:18:32;94165.06;;;5.36;100.00
24610;BME280;12758;47.890;11.694;2023-02-21T07:20:59;94166.88;;;5.41;100.00
24610;BME280;12758;47.890;11.694;2023-02-21T07:23:25;94167.88;;;5.45;100.00
24610;BME280;12758;47.890;11.694;2023-02-21T07:25:51;94166.28;;;5.44;100.00
24610;BME280;12758;47.890;11.694;2023-02-21T07:28:17;94161.94;;;5.48;100.00
24610;BME280;12758;47.890;11.694;2023-02-21T07:30:43;94166.16;;;5.54;100.00
24610;BME280;12758;47.890;11.694;2023-02-21T07:33:09;94169.38;;;5.56;100.00
24610;BME280;12758;47.890;11.694;2023-02-21T07:35:35;94164.34;;;5.50;100.00
24610;BME280;12758;47.890;11.694;2023-02-21T07:38:01;94164.13;;;5.46;100.00
24610;BME280;12758;47.890;11.694;2023-02-21T07:40:27;94158.41;;;5.29;100.00
24610;BME280;12758;47.890;11.694;2023-02-21T07:42:53;94163.66;;;5.39;100.00
24610;BME280;12758;47.890;11.694;2023-02-21T07:45:19;94163.66;;;5.39;100.00
24610;BME280;12758;47.890;11.694;2023-02-21T07:47:45;94165.84;;;5.37;100.00
24610;BME280;12758;47.890;11.694;2023-02-21T07:50:11;94158.63;;;5.32;100.00
24610;BME280;12758;47.890;11.694;2023-02-21T07:52:37;94164.22;;;5.36;100.00
24610;BME280;12758;47.890;11.694;2023-02-21T07:55:05;94160.81;;;5.30;100.00
24610;BME280;12758;47.890;11.694;2023-02-21T07:57:31;94163.28;;;5.27;100.00
24610;BME280;12758;47.890;11.694;2023-02-21T07:59:57;94155.66;;;5.34;100.00
24610;BME280;12758;47.890;11.694;2023-02-21T08:02:23;94170.56;;;5.45;100.00
24610;BME280;12758;47.890;11.694;2023-02-21T08:04:49;94168.97;;;5.44;100.00
24610;BME280;12758;47.890;11.694;2023-02-21T08:07:15;94176.13;;;5.54;100.00
24610;BME280;12758;47.890;11.694;2023-02-21T08:09:41;94177.16;;;5.58;100.00
24610;BME280;12758;47.890;11.694;2023-02-21T08:12:08;94177.47;;;5.56;100.00
24610;BME280;12758;47.890;11.694;2023-02-21T08:14:34;94182.19;;;5.65;100.00
24610;BME280;12758;47.890;11.694;2023-02-21T08:17:00;94182.56;;;5.77;100.00
24610;BME280;12758;47.890;11.694;2023-02-21T08:19:26;94185.47;;;5.80;100.00
24610;BME280;12758;47.890;11.694;2023-02-21T08:21:52;94179.72;;;5.87;100.00
24610;BME280;12758;47.890;11.694;2023-02-21T08:24:18;94171.16;;;5.85;100.00
24610;BME280;12758;47.890;11.694;2023-02-21T08:26:44;94174.59;;;5.91;99.43
24610;BME280;12758;47.890;11.694;2023-02-21T08:29:11;94179.66;;;5.97;98.12
24610;BME280;12758;47.890;11.694;2023-02-21T08:31:38;94174.69;;;6.04;100.00
24610;BME280;12758;47.890;11.694;2023-02-21T08:34:05;94174.97;;;6.22;99.07
24610;BME280;12758;47.890;11.694;2023-02-21T08:36:31;94178.44;;;6.41;99.79
24610;BME280;12758;47.890;11.694;2023-02-21T08:38:57;94184.53;;;6.66;96.09
24610;BME280;12758;47.890;11.694;2023-02-21T08:41:23;94190.50;;;6.63;98.10
24610;BME280;12758;47.890;11.694;2023-02-21T08:43:50;94192.53;;;6.71;92.29
24610;BME280;12758;47.890;11.694;2023-02-21T08:46:16;94185.47;;;6.75;91.79
24610;BME280;12758;47.890;11.694;2023-02-21T08:48:42;94183.00;;;7.06;88.12
24610;BME280;12758;47.890;11.694;2023-02-21T08:51:08;94188.31;;;6.97;88.95
24610;BME280;12758;47.890;11.694;2023-02-21T08:53:34;94185.19;;;6.90;87.90
24610;BME280;12758;47.890;11.694;2023-02-21T08:56:00;94189.34;;;7.29;84.90
24610;BME280;12758;47.890;11.694;2023-02-21T08:58:26;94186.66;;;7.29;81.55
24610;BME280;12758;47.890;11.694;2023-02-21T09:00:52;94181.47;;;7.33;82.56
24610;BME280;12758;47.890;11.694;2023-02-21T09:03:19;94191.66;;;7.50;80.38
24610;BME280;12758;47.890;11.694;2023-02-21T09:05:45;94178.81;;;7.83;79.48
24610;BME280;12758;47.890;11.694;2023-02-21T09:08:11;94183.16;;;7.42;83.50
24610;BME280;12758;47.890;11.694;2023-02-21T09:10:37;94187.75;;;7.56;83.11
24610;BME280;12758;47.890;11.694;2023-02-21T09:13:11;94186.78;;;8.02;77.78
24610;BME280;12758;47.890;11.694;2023-02-21T09:15:37;94180.97;;;8.22;73.33
24610;BME280;12758;47.890;11.694;2023-02-21T09:18:03;94181.19;;;8.34;70.74
24610;BME280;12758;47.890;11.694;2023-02-21T09:20:31;94178.69;;;8.74;69.61
24610;BME280;12758;47.890;11.694;2023-02-21T09:22:57;94187.41;;;8.49;69.68
24610;BME280;12758;47.890;11.694;2023-02-21T09:25:24;94192.19;;;8.52;67.93
24610;BME280;12758;47.890;11.694;2023-02-21T09:27:50;94197.91;;;9.57;64.86
24610;BME280;12758;47.890;11.694;2023-02-21T09:30:18;94198.47;;;8.61;68.88
24610;BME280;12758;47.890;11.694;2023-02-21T09:32:46;94201.94;;;9.29;63.98
24610;BME280;12758;47.890;11.694;2023-02-21T09:35:12;94194.25;;;9.62;68.24
24610;BME280;12758;47.890;11.694;2023-02-21T09:37:39;94191.25;;;9.64;60.85
24610;BME280;12758;47.890;11.694;2023-02-21T09:40:09;94196.50;;;9.69;60.41
24610;BME280;12758;47.890;11.694;2023-02-21T09:42:36;94193.28;;;9.58;63.78
24610;BME280;12758;47.890;11.694;2023-02-21T09:45:03;94200.41;;;9.94;63.50
24610;BME280;12758;47.890;11.694;2023-02-21T09:47:31;94203.94;;;10.03;59.87
24610;BME280;12758;47.890;11.694;2023-02-21T09:49:59;94195.25;;;9.66;61.61
24610;BME280;12758;47.890;11.694;2023-02-21T09:52:30;94201.22;;;9.46;61.43
24610;BME280;12758;47.890;11.694;2023-02-21T09:55:00;94197.31;;;9.69;59.03
24610;BME280;12758;47.890;11.694;2023-02-21T09:57:27;94192.59;;;9.44;59.98
24610;BME280;12758;47.890;11.694;2023-02-21T09:59:53;94192.81;;;10.13;61.99
24610;BME280;12758;47.890;11.694;2023-02-21T10:02:29;94192.47;;;10.06;59.07
24610;BME280;12758;47.890;11.694;2023-02-21T10:05:06;94196.63;;;10.12;63.49
24610;BME280;12758;47.890;11.694;2023-02-21T10:07:36;94192.88;;;10.48;63.69
24610;BME280;12758;47.890;11.694;2023-02-21T10:10:10;94192.97;;;10.08;59.35
24610;BME280;12758;47.890;11.694;2023-02-21T10:12:41;94191.53;;;10.19;63.28
24610;BME280;12758;47.890;11.694;2023-02-21T10:15:19;94196.22;;;10.88;55.70
24610;BME280;12758;47.890;11.694;2023-02-21T10:17:50;94196.69;;;10.82;51.43
24610;BME280;12758;47.890;11.694;2023-02-21T10:20:21;94194.84;;;9.99;55.53
24610;BME280;12758;47.890;11.694;2023-02-21T10:22:51;94195.88;;;10.29;55.00
24610;BME280;12758;47.890;11.694;2023-02-21T10:25:22;94194.38;;;10.14;57.42
24610;BME280;12758;47.890;11.694;2023-02-21T10:27:49;94191.09;;;10.52;56.20
24610;BME280;12758;47.890;11.694;2023-02-21T10:30:19;94186.53;;;9.47;59.89
24610;BME280;12758;47.890;11.694;2023-02-21T10:32:48;94196.63;;;10.12;57.03
24610;BME280;12758;47.890;11.694;2023-02-21T10:35:14;94189.81;;;9.66;57.07
24610;BME280;12758;47.890;11.694;2023-02-21T10:37:42;94195.28;;;10.41;58.10
24610;BME280;12758;47.890;11.694;2023-02-21T10:40:20;94187.75;;;10.29;57.18
24610;BME280;12758;47.890;11.694;2023-02-21T10:42:49;94189.03;;;10.84;51.07
24610;BME280;12758;47.890;11.694;2023-02-21T10:45:19;94194.78;;;10.73;55.38
24610;BME280;12758;47.890;11.694;2023-02-21T10:47:52;94186.97;;;11.45;53.95
24610;BME280;12758;47.890;11.694;2023-02-21T10:50:38;94185.03;;;11.54;52.34
24610;BME280;12758;47.890;11.694;2023-02-21T10:53:05;94184.50;;;11.70;55.11
24610;BME280;12758;47.890;11.694;2023-02-21T10:55:31;94183.63;;;11.78;51.80
24610;BME280;12758;47.890;11.694;2023-02-21T10:58:04;94185.03;;;11.93;53.62
24610;BME280;12758;47.890;11.694;2023-02-21T11:00:33;94179.75;;;11.96;49.54
24610;BME280;12758;47.890;11.694;2023-02-21T11:03:02;94178.16;;;11.95;48.52
24610;BME280;12758;47.890;11.694;2023-02-21T11:05:30;94172.84;;;11.99;53.22
24610;BME280;12758;47.890;11.694;2023-02-21T11:07:58;94161.44;;;12.05;47.70
24610;BME280;12758;47.890;11.694;2023-02-21T11:10:31;94168.59;;;11.89;54.08
24610;BME280;12758;47.890;11.694;2023-02-21T11:13:03;94162.75;;;11.99;48.16
24610;BME280;12758;47.890;11.694;2023-02-21T11:15:29;94165.31;;;12.04;51.51
24610;BME280;12758;47.890;11.694;2023-02-21T11:18:04;94155.63;;;12.16;48.00
24610;BME280;12758;47.890;11.694;2023-02-21T11:20:31;94150.84;;;12.12;48.93
24610;BME280;12758;47.890;11.694;2023-02-21T11:22:57;94148.66;;;12.27;47.49
24610;BME280;12758;47.890;11.694;2023-02-21T11:25:25;94148.31;;;12.07;48.71
24610;BME280;12758;47.890;11.694;2023-02-21T11:28:04;94140.63;;;12.51;49.88
24610;BME280;12758;47.890;11.694;2023-02-21T11:30:32;94140.56;;;12.39;45.73
24610;BME280;12758;47.890;11.694;2023-02-21T11:32:59;94133.59;;;12.50;47.94
24610;BME280;12758;47.890;11.694;2023-02-21T11:35:27;94132.66;;;12.46;50.48
24610;BME280;12758;47.890;11.694;2023-02-21T11:37:56;94120.13;;;12.33;47.65
24610;BME280;12758;47.890;11.694;2023-02-21T11:40:32;94123.75;;;12.58;46.79
24610;BME280;12758;47.890;11.694;2023-02-21T11:43:10;94121.88;;;12.71;45.95
24610;BME280;12758;47.890;11.694;2023-02-21T11:45:36;94118.44;;;12.62;44.90
24610;BME280;12758;47.890;11.694;2023-02-21T11:48:10;94111.13;;;12.53;45.49
24610;BME280;12758;47.890;11.694;2023-02-21T11:50:39;94117.09;;;12.68;45.87
24610;BME280;12758;47.890;11.694;2023-02-21T11:53:16;94110.56;;;12.81;45.71
24610;BME280;12758;47.890;11.694;2023-02-21T11:55:49;94104.72;;;13.03;44.95
24610;BME280;12758;47.890;11.694;2023-02-21T11:58:21;94100.53;;;13.18;44.54
24610;BME280;12758;47.890;11.694;2023-02-21T12:00:51;94104.94;;;12.98;43.48
24610;BME280;12758;47.890;11.694;2023-02-21T12:03:36;94098.53;;;11.86;45.01
24610;BME280;12758;47.890;11.694;2023-02-21T12:06:08;94088.03;;;12.59;44.58
24610;BME280;12758;47.890;11.694;2023-02-21T12:08:39;94092.47;;;12.97;43.99
24610;BME280;12758;47.890;11.694;2023-02-21T12:11:21;94081.56;;;12.97;44.01
24610;BME280;12758;47.890;11.694;2023-02-21T12:13:53;94080.19;;;12.91;43.07
24610;BME280;12758;47.890;11.694;2023-02-21T12:16:30;94072.53;;;12.72;42.79
24610;BME280;12758;47.890;11.694;2023-02-21T12:19:07;94077.75;;;13.23;44.57
24610;BME280;12758;47.890;11.694;2023-02-21T12:21:50;94072.72;;;13.13;43.53
24610;BME280;12758;47.890;11.694;2023-02-21T12:24:26;94063.06;;;13.15;43.06
24610;BME280;12758;47.890;11.694;2023-02-21T12:27:01;94059.19;;;13.04;44.96
24610;BME280;12758;47.890;11.694;2023-02-21T12:29:39;94056.31;;;13.34;47.71
24610;BME280;12758;47.890;11.694;2023-02-21T12:32:19;94054.22;;;13.18;44.92
24610;BME280;12758;47.890;11.694;2023-02-21T12:34:58;94053.13;;;12.86;51.52
24610;BME280;12758;47.890;11.694;2023-02-21T12:37:29;94052.09;;;12.33;46.55
24610;BME280;12758;47.890;11.694;2023-02-21T12:40:03;94049.38;;;12.45;50.32
24610;BME280;12758;47.890;11.694;2023-02-21T12:42:41;94039.94;;;12.09;48.67
24610;BME280;12758;47.890;11.694;2023-02-21T12:45:32;94038.31;;;13.08;46.70
24610;BME280;12758;47.890;11.694;2023-02-21T12:48:04;94042.50;;;13.05;45.60
24610;BME280;12758;47.890;11.694;2023-02-21T12:50:35;94033.22;;;13.07;47.00
24610;BME280;12758;47.890;11.694;2023-02-21T12:53:05;94030.56;;;12.98;45.46
24610;BME280;12758;47.890;11.694;2023-02-21T12:55:35;94033.31;;;12.98;45.87
24610;BME280;12758;47.890;11.694;2023-02-21T12:58:08;94026.88;;;12.24;48.19
24610;BME280;12758;47.890;11.694;2023-02-21T13:00:40;94021.59;;;12.52;47.74
24610;BME280;12758;47.890;11.694;2023-02-21T13:03:13;94020.25;;;13.03;50.67
24610;BME280;12758;47.890;11.694;2023-02-21T13:05:46;94016.16;;;13.22;48.83
24610;BME280;12758;47.890;11.694;2023-02-21T13:08:15;94015.34;;;12.97;49.01
24610;BME280;12758;47.890;11.694;2023-02-21T13:10:50;94022.78;;;13.33;49.49
24610;BME280;12758;47.890;11.694;2023-02-21T13:13:18;94007.06;;;13.05;47.66
24610;BME280;12758;47.890;11.694;2023-02-21T13:15:47;94005.41;;;13.25;46.77
24610;BME280;12758;47.890;11.694;2023-02-21T13:18:16;94003.66;;;13.58;52.17